sensor_id;sensor_type;location;lat;lon;timestamp;P1;durP1;ratioP1;P2;durP2;ratioP2
56537;SDS011;42435;53.292;6.000;2023-09-19T00:00:33;8.57;;;2.00;;
56537;SDS011;42435;53.292;6.000;2023-09-19T00:03:00;8.55;;;1.80;;
56537;SDS011;42435;53.292;6.000;2023-09-19T00:05:27;10.77;;;2.17;;
56537;SDS011;42435;53.292;6.000;2023-09-19T00:07:55;7.03;;;1.70;;
56537;SDS011;42435;53.292;6.000;2023-09-19T00:10:24;11.15;;;2.20;;
56537;SDS011;42435;53.292;6.000;2023-09-19T00:12:56;8.13;;;1.67;;
56537;SDS011;42435;53.292;6.000;2023-09-19T00:15:24;10.57;;;2.20;;
56537;SDS011;42435;53.292;6.000;2023-09-19T00:17:53;16.10;;;2.30;;
56537;SDS011;42435;53.292;6.000;2023-09-19T00:20:20;8.98;;;1.77;;
56537;SDS011;42435;53.292;6.000;2023-09-19T00:22:48;7.55;;;2.60;;
56537;SDS011;42435;53.292;6.000;2023-09-19T00:25:15;8.40;;;2.13;;
56537;SDS011;42435;53.292;6.000;2023-09-19T00:27:41;12.15;;;2.25;;
56537;SDS011;42435;53.292;6.000;2023-09-19T00:30:12;9.77;;;2.22;;
56537;SDS011;42435;53.292;6.000;2023-09-19T00:32:44;7.90;;;1.88;;
56537;SDS011;42435;53.292;6.000;2023-09-19T00:35:12;8.13;;;2.15;;
56537;SDS011;42435;53.292;6.000;2023-09-19T00:37:42;9.45;;;2.28;;
56537;SDS011;42435;53.292;6.000;2023-09-19T00:40:08;9.52;;;1.95;;
56537;SDS011;42435;53.292;6.000;2023-09-19T00:42:38;9.88;;;2.33;;
56537;SDS011;42435;53.292;6.000;2023-09-19T00:45:05;9.73;;;2.10;;
56537;SDS011;42435;53.292;6.000;2023-09-19T00:47:34;8.52;;;1.77;;
56537;SDS011;42435;53.292;6.000;2023-09-19T00:50:00;9.02;;;2.08;;
56537;SDS011;42435;53.292;6.000;2023-09-19T00:52:28;10.23;;;2.33;;
56537;SDS011;42435;53.292;6.000;2023-09-19T00:54:53;9.48;;;2.03;;
56537;SDS011;42435;53.292;6.000;2023-09-19T00:57:21;8.98;;;2.45;;
56537;SDS011;42435;53.292;6.000;2023-09-19T00:59:48;9.43;;;1.90;;
56537;SDS011;42435;53.292;6.000;2023-09-19T01:02:18;9.25;;;2.20;;
56537;SDS011;42435;53.292;6.000;2023-09-19T01:04:44;10.77;;;2.13;;
56537;SDS011;42435;53.292;6.000;2023-09-19T01:07:10;9.90;;;3.17;;
56537;SDS011;42435;53.292;6.000;2023-09-19T01:09:36;10.85;;;2.15;;
56537;SDS011;42435;53.292;6.000;2023-09-19T01:12:02;10.52;;;2.90;;
56537;SDS011;42435;53.292;6.000;2023-09-19T01:14:34;9.57;;;1.90;;
56537;SDS011;42435;53.292;6.000;2023-09-19T01:17:24;7.65;;;2.00;;
56537;SDS011;42435;53.292;6.000;2023-09-19T01:20:02;8.07;;;1.75;;
56537;SDS011;42435;53.292;6.000;2023-09-19T01:30:48;6.47;;;1.63;;
56537;SDS011;42435;53.292;6.000;2023-09-19T01:33:23;8.00;;;1.55;;
56537;SDS011;42435;53.292;6.000;2023-09-19T01:35:48;6.43;;;1.63;;
56537;SDS011;42435;53.292;6.000;2023-09-19T01:38:15;10.30;;;2.00;;
56537;SDS011;42435;53.292;6.000;2023-09-19T01:40:42;7.63;;;2.00;;
56537;SDS011;42435;53.292;6.000;2023-09-19T01:43:17;7.10;;;2.00;;
56537;SDS011;42435;53.292;6.000;2023-09-19T01:48:40;8.57;;;1.85;;
56537;SDS011;42435;53.292;6.000;2023-09-19T01:51:20;7.03;;;1.90;;
56537;SDS011;42435;53.292;6.000;2023-09-19T01:54:00;4.82;;;1.58;;
56537;SDS011;42435;53.292;6.000;2023-09-19T01:56:30;10.00;;;1.92;;
56537;SDS011;42435;53.292;6.000;2023-09-19T01:59:04;11.32;;;2.35;;
56537;SDS011;42435;53.292;6.000;2023-09-19T02:01:35;8.25;;;1.92;;
56537;SDS011;42435;53.292;6.000;2023-09-19T02:04:05;5.93;;;1.95;;
56537;SDS011;42435;53.292;6.000;2023-09-19T02:06:32;8.80;;;1.80;;
56537;SDS011;42435;53.292;6.000;2023-09-19T02:08:59;6.18;;;1.60;;
56537;SDS011;42435;53.292;6.000;2023-09-19T02:11:25;10.05;;;1.80;;
56537;SDS011;42435;53.292;6.000;2023-09-19T02:13:51;7.35;;;2.38;;
56537;SDS011;42435;53.292;6.000;2023-09-19T02:16:19;7.50;;;1.90;;
56537;SDS011;42435;53.292;6.000;2023-09-19T02:18:47;5.25;;;1.50;;
56537;SDS011;42435;53.292;6.000;2023-09-19T02:21:14;6.80;;;1.40;;
56537;SDS011;42435;53.292;6.000;2023-09-19T02:23:40;6.28;;;1.77;;
56537;SDS011;42435;53.292;6.000;2023-09-19T02:26:06;5.75;;;1.90;;
56537;SDS011;42435;53.292;6.000;2023-09-19T02:28:33;10.70;;;2.40;;
56537;SDS011;42435;53.292;6.000;2023-09-19T02:30:59;8.80;;;1.52;;
56537;SDS011;42435;53.292;6.000;2023-09-19T02:33:25;9.55;;;1.83;;
56537;SDS011;42435;53.292;6.000;2023-09-19T02:35:54;7.20;;;1.70;;
56537;SDS011;42435;53.292;6.000;2023-09-19T02:38:26;6.70;;;1.85;;
56537;SDS011;42435;53.292;6.000;2023-09-19T02:40:55;8.13;;;1.60;;
56537;SDS011;42435;53.292;6.000;2023-09-19T02:43:21;6.07;;;1.38;;
56537;SDS011;42435;53.292;6.000;2023-09-19T02:45:47;8.38;;;1.77;;
56537;SDS011;42435;53.292;6.000;2023-09-19T02:48:15;6.32;;;1.45;;
56537;SDS011;42435;53.292;6.000;2023-09-19T02:50:43;8.90;;;1.63;;
56537;SDS011;42435;53.292;6.000;2023-09-19T02:53:09;8.35;;;1.80;;
56537;SDS011;42435;53.292;6.000;2023-09-19T02:55:37;9.23;;;1.85;;
56537;SDS011;42435;53.292;6.000;2023-09-19T02:58:05;8.85;;;1.70;;
56537;SDS011;42435;53.292;6.000;2023-09-19T03:00:32;8.38;;;1.65;;
56537;SDS011;42435;53.292;6.000;2023-09-19T03:02:59;8.18;;;1.90;;
56537;SDS011;42435;53.292;6.000;2023-09-19T03:05:24;8.00;;;1.50;;
56537;SDS011;42435;53.292;6.000;2023-09-19T03:07:51;9.05;;;1.52;;
56537;SDS011;42435;53.292;6.000;2023-09-19T03:10:20;9.75;;;1.92;;
56537;SDS011;42435;53.292;6.000;2023-09-19T03:12:46;9.02;;;1.75;;
56537;SDS011;42435;53.292;6.000;2023-09-19T03:15:15;8.10;;;2.22;;
56537;SDS011;42435;53.292;6.000;2023-09-19T03:17:43;5.55;;;2.22;;
56537;SDS011;42435;53.292;6.000;2023-09-19T03:20:10;3.53;;;1.35;;
56537;SDS011;42435;53.292;6.000;2023-09-19T03:22:38;4.63;;;1.50;;
56537;SDS011;42435;53.292;6.000;2023-09-19T03:25:05;5.82;;;1.48;;
56537;SDS011;42435;53.292;6.000;2023-09-19T03:27:33;9.63;;;1.55;;
56537;SDS011;42435;53.292;6.000;2023-09-19T03:30:02;4.38;;;1.10;;
56537;SDS011;42435;53.292;6.000;2023-09-19T03:32:36;7.43;;;1.20;;
56537;SDS011;42435;53.292;6.000;2023-09-19T03:35:08;6.82;;;1.33;;
56537;SDS011;42435;53.292;6.000;2023-09-19T03:37:39;8.15;;;1.70;;
56537;SDS011;42435;53.292;6.000;2023-09-19T03:40:09;6.32;;;1.20;;
56537;SDS011;42435;53.292;6.000;2023-09-19T03:42:39;7.85;;;1.92;;
56537;SDS011;42435;53.292;6.000;2023-09-19T03:45:06;6.80;;;1.77;;
56537;SDS011;42435;53.292;6.000;2023-09-19T03:47:34;6.95;;;1.33;;
56537;SDS011;42435;53.292;6.000;2023-09-19T03:50:00;8.68;;;1.52;;
56537;SDS011;42435;53.292;6.000;2023-09-19T03:52:28;5.25;;;1.27;;
56537;SDS011;42435;53.292;6.000;2023-09-19T03:54:54;7.18;;;1.60;;
56537;SDS011;42435;53.292;6.000;2023-09-19T03:57:19;8.15;;;2.00;;
56537;SDS011;42435;53.292;6.000;2023-09-19T03:59:46;5.38;;;1.05;;
56537;SDS011;42435;53.292;6.000;2023-09-19T04:02:12;9.10;;;1.60;;
56537;SDS011;42435;53.292;6.000;2023-09-19T04:07:13;5.03;;;1.20;;
56537;SDS011;42435;53.292;6.000;2023-09-19T04:09:39;6.60;;;1.38;;
56537;SDS011;42435;53.292;6.000;2023-09-19T04:12:05;6.88;;;1.60;;
56537;SDS011;42435;53.292;6.000;2023-09-19T04:14:30;12.15;;;2.25;;
56537;SDS011;42435;53.292;6.000;2023-09-19T04:16:57;6.95;;;1.55;;
56537;SDS011;42435;53.292;6.000;2023-09-19T04:19:23;6.22;;;1.58;;
56537;SDS011;42435;53.292;6.000;2023-09-19T04:21:49;8.13;;;1.73;;
56537;SDS011;42435;53.292;6.000;2023-09-19T04:24:14;7.03;;;1.80;;
56537;SDS011;42435;53.292;6.000;2023-09-19T04:26:40;8.80;;;2.03;;
56537;SDS011;42435;53.292;6.000;2023-09-19T04:29:05;6.57;;;1.83;;
56537;SDS011;42435;53.292;6.000;2023-09-19T04:31:31;9.05;;;2.00;;
56537;SDS011;42435;53.292;6.000;2023-09-19T04:33:57;4.40;;;1.67;;
56537;SDS011;42435;53.292;6.000;2023-09-19T04:36:24;8.65;;;1.73;;
56537;SDS011;42435;53.292;6.000;2023-09-19T04:38:49;8.25;;;1.73;;
56537;SDS011;42435;53.292;6.000;2023-09-19T04:41:15;11.27;;;1.95;;
56537;SDS011;42435;53.292;6.000;2023-09-19T04:43:41;6.88;;;1.70;;
56537;SDS011;42435;53.292;6.000;2023-09-19T04:46:06;8.70;;;2.45;;
56537;SDS011;42435;53.292;6.000;2023-09-19T04:48:32;8.90;;;2.38;;
56537;SDS011;42435;53.292;6.000;2023-09-19T04:51:01;6.50;;;1.65;;
56537;SDS011;42435;53.292;6.000;2023-09-19T04:53:28;11.77;;;1.98;;
56537;SDS011;42435;53.292;6.000;2023-09-19T04:55:53;7.18;;;1.63;;
56537;SDS011;42435;53.292;6.000;2023-09-19T04:58:20;8.57;;;1.63;;
56537;SDS011;42435;53.292;6.000;2023-09-19T05:00:47;9.18;;;2.03;;
56537;SDS011;42435;53.292;6.000;2023-09-19T05:03:15;7.53;;;2.15;;
56537;SDS011;42435;53.292;6.000;2023-09-19T05:05:42;9.57;;;1.25;;
56537;SDS011;42435;53.292;6.000;2023-09-19T05:08:07;9.82;;;1.40;;
56537;SDS011;42435;53.292;6.000;2023-09-19T05:10:34;8.18;;;1.65;;
56537;SDS011;42435;53.292;6.000;2023-09-19T05:13:04;5.68;;;1.63;;
56537;SDS011;42435;53.292;6.000;2023-09-19T05:15:30;7.57;;;1.65;;
56537;SDS011;42435;53.292;6.000;2023-09-19T05:17:56;8.82;;;1.70;;
56537;SDS011;42435;53.292;6.000;2023-09-19T05:20:22;10.65;;;1.95;;
56537;SDS011;42435;53.292;6.000;2023-09-19T05:22:58;7.18;;;1.40;;
56537;SDS011;42435;53.292;6.000;2023-09-19T05:25:33;9.32;;;2.03;;
56537;SDS011;42435;53.292;6.000;2023-09-19T05:28:03;10.60;;;2.05;;
56537;SDS011;42435;53.292;6.000;2023-09-19T05:30:31;15.70;;;2.05;;
56537;SDS011;42435;53.292;6.000;2023-09-19T05:32:57;4.30;;;1.70;;
56537;SDS011;42435;53.292;6.000;2023-09-19T05:35:23;12.40;;;2.10;;
56537;SDS011;42435;53.292;6.000;2023-09-19T05:37:50;8.75;;;1.70;;
56537;SDS011;42435;53.292;6.000;2023-09-19T05:40:19;8.07;;;1.92;;
56537;SDS011;42435;53.292;6.000;2023-09-19T05:42:45;10.25;;;1.90;;
56537;SDS011;42435;53.292;6.000;2023-09-19T05:45:12;10.10;;;1.90;;
56537;SDS011;42435;53.292;6.000;2023-09-19T05:47:43;10.50;;;2.08;;
56537;SDS011;42435;53.292;6.000;2023-09-19T05:50:11;7.82;;;1.92;;
56537;SDS011;42435;53.292;6.000;2023-09-19T05:52:40;7.30;;;1.88;;
56537;SDS011;42435;53.292;6.000;2023-09-19T05:55:10;8.05;;;1.80;;
56537;SDS011;42435;53.292;6.000;2023-09-19T05:57:36;8.20;;;2.10;;
56537;SDS011;42435;53.292;6.000;2023-09-19T06:00:04;5.25;;;1.83;;
56537;SDS011;42435;53.292;6.000;2023-09-19T06:02:36;8.35;;;2.05;;
56537;SDS011;42435;53.292;6.000;2023-09-19T06:05:03;5.40;;;1.60;;
56537;SDS011;42435;53.292;6.000;2023-09-19T06:07:35;9.02;;;1.88;;
56537;SDS011;42435;53.292;6.000;2023-09-19T06:10:05;7.40;;;1.60;;
56537;SDS011;42435;53.292;6.000;2023-09-19T06:12:32;5.82;;;1.48;;
56537;SDS011;42435;53.292;6.000;2023-09-19T06:15:02;8.45;;;1.58;;
56537;SDS011;42435;53.292;6.000;2023-09-19T06:17:30;12.05;;;2.60;;
56537;SDS011;42435;53.292;6.000;2023-09-19T06:19:56;9.35;;;2.10;;
56537;SDS011;42435;53.292;6.000;2023-09-19T06:22:22;10.80;;;2.08;;
56537;SDS011;42435;53.292;6.000;2023-09-19T06:24:49;11.93;;;2.28;;
56537;SDS011;42435;53.292;6.000;2023-09-19T06:27:15;6.72;;;1.40;;
56537;SDS011;42435;53.292;6.000;2023-09-19T06:29:40;11.30;;;1.77;;
56537;SDS011;42435;53.292;6.000;2023-09-19T06:32:07;8.05;;;1.85;;
56537;SDS011;42435;53.292;6.000;2023-09-19T06:34:36;11.38;;;1.83;;
56537;SDS011;42435;53.292;6.000;2023-09-19T06:37:03;10.18;;;1.92;;
56537;SDS011;42435;53.292;6.000;2023-09-19T06:39:31;14.65;;;2.33;;
56537;SDS011;42435;53.292;6.000;2023-09-19T06:41:56;11.32;;;2.13;;
56537;SDS011;42435;53.292;6.000;2023-09-19T06:44:23;8.25;;;2.00;;
56537;SDS011;42435;53.292;6.000;2023-09-19T06:46:49;8.95;;;1.90;;
56537;SDS011;42435;53.292;6.000;2023-09-19T06:49:16;7.22;;;1.65;;
56537;SDS011;42435;53.292;6.000;2023-09-19T06:51:42;5.15;;;1.50;;
56537;SDS011;42435;53.292;6.000;2023-09-19T06:54:09;8.02;;;1.50;;
56537;SDS011;42435;53.292;6.000;2023-09-19T06:56:34;9.20;;;1.63;;
56537;SDS011;42435;53.292;6.000;2023-09-19T06:59:00;8.25;;;1.70;;
56537;SDS011;42435;53.292;6.000;2023-09-19T07:01:27;11.35;;;1.90;;
56537;SDS011;42435;53.292;6.000;2023-09-19T07:03:53;7.10;;;1.80;;
56537;SDS011;42435;53.292;6.000;2023-09-19T07:06:19;8.38;;;1.70;;
56537;SDS011;42435;53.292;6.000;2023-09-19T07:08:45;6.57;;;1.92;;
56537;SDS011;42435;53.292;6.000;2023-09-19T07:11:10;8.32;;;1.92;;
56537;SDS011;42435;53.292;6.000;2023-09-19T07:13:37;10.75;;;1.98;;
56537;SDS011;42435;53.292;6.000;2023-09-19T07:16:04;10.95;;;1.80;;
56537;SDS011;42435;53.292;6.000;2023-09-19T07:18:29;7.90;;;1.85;;
56537;SDS011;42435;53.292;6.000;2023-09-19T07:20:57;8.88;;;1.45;;
56537;SDS011;42435;53.292;6.000;2023-09-19T07:23:26;10.20;;;1.75;;
56537;SDS011;42435;53.292;6.000;2023-09-19T07:25:56;7.22;;;2.15;;
56537;SDS011;42435;53.292;6.000;2023-09-19T07:28:23;11.32;;;1.85;;
56537;SDS011;42435;53.292;6.000;2023-09-19T07:30:49;6.00;;;1.77;;
56537;SDS011;42435;53.292;6.000;2023-09-19T07:33:15;6.82;;;1.77;;
56537;SDS011;42435;53.292;6.000;2023-09-19T07:35:40;11.35;;;1.58;;
56537;SDS011;42435;53.292;6.000;2023-09-19T07:38:11;7.45;;;2.13;;
56537;SDS011;42435;53.292;6.000;2023-09-19T07:40:36;8.10;;;1.90;;
56537;SDS011;42435;53.292;6.000;2023-09-19T07:43:02;10.65;;;1.85;;
56537;SDS011;42435;53.292;6.000;2023-09-19T07:45:29;9.38;;;2.10;;
56537;SDS011;42435;53.292;6.000;2023-09-19T07:47:56;13.13;;;2.53;;
56537;SDS011;42435;53.292;6.000;2023-09-19T07:50:21;8.25;;;2.60;;
56537;SDS011;42435;53.292;6.000;2023-09-19T07:52:48;7.90;;;1.67;;
56537;SDS011;42435;53.292;6.000;2023-09-19T07:55:15;11.52;;;2.30;;
56537;SDS011;42435;53.292;6.000;2023-09-19T07:57:42;10.32;;;2.22;;
56537;SDS011;42435;53.292;6.000;2023-09-19T08:00:08;12.43;;;2.22;;
56537;SDS011;42435;53.292;6.000;2023-09-19T08:02:37;8.95;;;1.70;;
56537;SDS011;42435;53.292;6.000;2023-09-19T08:05:10;10.68;;;2.33;;
56537;SDS011;42435;53.292;6.000;2023-09-19T08:07:41;10.82;;;2.35;;
56537;SDS011;42435;53.292;6.000;2023-09-19T08:10:08;9.82;;;2.25;;
56537;SDS011;42435;53.292;6.000;2023-09-19T08:12:42;9.55;;;2.22;;
56537;SDS011;42435;53.292;6.000;2023-09-19T08:15:20;12.85;;;2.47;;
56537;SDS011;42435;53.292;6.000;2023-09-19T08:17:46;9.88;;;1.80;;
56537;SDS011;42435;53.292;6.000;2023-09-19T08:20:12;12.65;;;1.90;;
56537;SDS011;42435;53.292;6.000;2023-09-19T08:22:49;9.30;;;1.85;;
56537;SDS011;42435;53.292;6.000;2023-09-19T08:25:17;27.83;;;3.45;;
56537;SDS011;42435;53.292;6.000;2023-09-19T08:27:46;12.05;;;3.15;;
56537;SDS011;42435;53.292;6.000;2023-09-19T08:30:18;7.47;;;1.58;;
56537;SDS011;42435;53.292;6.000;2023-09-19T08:32:48;10.52;;;1.98;;
56537;SDS011;42435;53.292;6.000;2023-09-19T08:35:26;10.63;;;2.45;;
56537;SDS011;42435;53.292;6.000;2023-09-19T08:37:52;10.48;;;2.33;;
56537;SDS011;42435;53.292;6.000;2023-09-19T08:40:18;13.18;;;2.28;;
56537;SDS011;42435;53.292;6.000;2023-09-19T08:42:47;10.98;;;2.35;;
56537;SDS011;42435;53.292;6.000;2023-09-19T08:45:14;6.28;;;1.88;;
56537;SDS011;42435;53.292;6.000;2023-09-19T08:47:45;7.25;;;1.90;;
56537;SDS011;42435;53.292;6.000;2023-09-19T08:50:18;11.95;;;2.15;;
56537;SDS011;42435;53.292;6.000;2023-09-19T08:52:53;9.15;;;1.83;;
56537;SDS011;42435;53.292;6.000;2023-09-19T08:55:22;12.18;;;2.50;;
56537;SDS011;42435;53.292;6.000;2023-09-19T08:57:51;11.48;;;2.63;;
56537;SDS011;42435;53.292;6.000;2023-09-19T09:00:23;10.35;;;1.88;;
56537;SDS011;42435;53.292;6.000;2023-09-19T09:02:52;11.52;;;2.45;;
56537;SDS011;42435;53.292;6.000;2023-09-19T09:05:20;12.30;;;1.98;;
56537;SDS011;42435;53.292;6.000;2023-09-19T09:07:48;9.60;;;2.63;;
56537;SDS011;42435;53.292;6.000;2023-09-19T09:10:16;7.10;;;2.30;;
56537;SDS011;42435;53.292;6.000;2023-09-19T09:12:52;9.30;;;1.85;;
56537;SDS011;42435;53.292;6.000;2023-09-19T09:15:26;12.85;;;2.47;;
56537;SDS011;42435;53.292;6.000;2023-09-19T09:17:55;12.68;;;2.55;;
56537;SDS011;42435;53.292;6.000;2023-09-19T09:20:22;10.82;;;2.67;;
56537;SDS011;42435;53.292;6.000;2023-09-19T09:22:52;11.35;;;2.40;;
56537;SDS011;42435;53.292;6.000;2023-09-19T09:25:21;10.20;;;2.50;;
56537;SDS011;42435;53.292;6.000;2023-09-19T09:28:00;10.40;;;2.15;;
56537;SDS011;42435;53.292;6.000;2023-09-19T09:30:33;7.65;;;2.10;;
56537;SDS011;42435;53.292;6.000;2023-09-19T09:33:10;5.72;;;1.85;;
56537;SDS011;42435;53.292;6.000;2023-09-19T09:35:56;10.25;;;2.42;;
56537;SDS011;42435;53.292;6.000;2023-09-19T09:38:43;7.35;;;1.90;;
56537;SDS011;42435;53.292;6.000;2023-09-19T09:41:13;7.40;;;2.33;;
56537;SDS011;42435;53.292;6.000;2023-09-19T09:43:52;9.88;;;2.10;;
56537;SDS011;42435;53.292;6.000;2023-09-19T09:46:19;15.10;;;3.05;;
56537;SDS011;42435;53.292;6.000;2023-09-19T09:51:43;9.73;;;2.13;;
56537;SDS011;42435;53.292;6.000;2023-09-19T09:54:24;10.77;;;2.10;;
56537;SDS011;42435;53.292;6.000;2023-09-19T09:57:04;8.77;;;2.55;;
56537;SDS011;42435;53.292;6.000;2023-09-19T09:59:50;10.88;;;2.72;;
56537;SDS011;42435;53.292;6.000;2023-09-19T10:02:27;9.27;;;2.00;;
56537;SDS011;42435;53.292;6.000;2023-09-19T10:05:15;7.30;;;2.47;;
56537;SDS011;42435;53.292;6.000;2023-09-19T10:07:41;10.75;;;2.33;;
56537;SDS011;42435;53.292;6.000;2023-09-19T10:10:14;13.30;;;2.35;;
56537;SDS011;42435;53.292;6.000;2023-09-19T10:12:54;11.15;;;3.22;;
56537;SDS011;42435;53.292;6.000;2023-09-19T10:15:27;11.68;;;2.72;;
56537;SDS011;42435;53.292;6.000;2023-09-19T10:17:56;15.18;;;2.78;;
56537;SDS011;42435;53.292;6.000;2023-09-19T10:20:26;10.05;;;3.03;;
56537;SDS011;42435;53.292;6.000;2023-09-19T10:22:55;12.13;;;2.50;;
56537;SDS011;42435;53.292;6.000;2023-09-19T10:25:29;13.60;;;2.78;;
56537;SDS011;42435;53.292;6.000;2023-09-19T10:28:00;10.18;;;2.90;;
56537;SDS011;42435;53.292;6.000;2023-09-19T10:30:35;9.10;;;2.80;;
56537;SDS011;42435;53.292;6.000;2023-09-19T10:33:10;13.93;;;2.83;;
56537;SDS011;42435;53.292;6.000;2023-09-19T10:35:38;11.38;;;2.40;;
56537;SDS011;42435;53.292;6.000;2023-09-19T10:38:07;9.73;;;2.50;;
56537;SDS011;42435;53.292;6.000;2023-09-19T10:40:35;17.30;;;2.90;;
56537;SDS011;42435;53.292;6.000;2023-09-19T10:43:05;8.40;;;2.45;;
56537;SDS011;42435;53.292;6.000;2023-09-19T10:45:35;9.40;;;2.78;;
56537;SDS011;42435;53.292;6.000;2023-09-19T10:48:06;7.32;;;3.00;;
56537;SDS011;42435;53.292;6.000;2023-09-19T10:50:33;12.30;;;2.90;;
56537;SDS011;42435;53.292;6.000;2023-09-19T10:53:14;14.10;;;3.42;;
56537;SDS011;42435;53.292;6.000;2023-09-19T10:55:42;13.15;;;3.35;;
56537;SDS011;42435;53.292;6.000;2023-09-19T10:58:26;14.45;;;3.38;;
56537;SDS011;42435;53.292;6.000;2023-09-19T11:00:54;10.18;;;3.00;;
56537;SDS011;42435;53.292;6.000;2023-09-19T11:03:22;9.90;;;2.45;;
56537;SDS011;42435;53.292;6.000;2023-09-19T11:11:40;7.55;;;2.75;;
56537;SDS011;42435;53.292;6.000;2023-09-19T11:17:29;9.48;;;2.58;;
56537;SDS011;42435;53.292;6.000;2023-09-19T11:30:43;10.75;;;3.38;;
56537;SDS011;42435;53.292;6.000;2023-09-19T11:35:58;8.48;;;3.17;;
56537;SDS011;42435;53.292;6.000;2023-09-19T11:43:46;12.10;;;4.45;;
56537;SDS011;42435;53.292;6.000;2023-09-19T11:46:29;14.38;;;3.78;;
56537;SDS011;42435;53.292;6.000;2023-09-19T11:49:04;12.48;;;2.97;;
56537;SDS011;42435;53.292;6.000;2023-09-19T11:51:41;12.05;;;3.75;;
56537;SDS011;42435;53.292;6.000;2023-09-19T11:54:12;10.75;;;3.65;;
56537;SDS011;42435;53.292;6.000;2023-09-19T11:56:50;12.93;;;4.47;;
56537;SDS011;42435;53.292;6.000;2023-09-19T11:59:23;13.70;;;3.60;;
56537;SDS011;42435;53.292;6.000;2023-09-19T12:01:54;12.48;;;3.65;;
56537;SDS011;42435;53.292;6.000;2023-09-19T12:04:41;16.95;;;4.57;;
56537;SDS011;42435;53.292;6.000;2023-09-19T12:07:15;9.88;;;3.58;;
56537;SDS011;42435;53.292;6.000;2023-09-19T12:09:51;13.85;;;4.47;;
56537;SDS011;42435;53.292;6.000;2023-09-19T12:12:29;11.10;;;4.68;;
56537;SDS011;42435;53.292;6.000;2023-09-19T12:14:56;9.38;;;3.67;;
56537;SDS011;42435;53.292;6.000;2023-09-19T12:17:41;10.23;;;4.43;;
56537;SDS011;42435;53.292;6.000;2023-09-19T12:20:07;11.68;;;3.42;;
56537;SDS011;42435;53.292;6.000;2023-09-19T12:22:43;9.45;;;3.65;;
56537;SDS011;42435;53.292;6.000;2023-09-19T12:25:10;10.32;;;3.25;;
56537;SDS011;42435;53.292;6.000;2023-09-19T12:27:49;8.05;;;3.25;;
56537;SDS011;42435;53.292;6.000;2023-09-19T12:30:19;9.68;;;3.58;;
56537;SDS011;42435;53.292;6.000;2023-09-19T12:32:47;7.45;;;3.03;;
56537;SDS011;42435;53.292;6.000;2023-09-19T12:35:29;8.38;;;3.10;;
56537;SDS011;42435;53.292;6.000;2023-09-19T12:38:01;12.63;;;3.38;;
56537;SDS011;42435;53.292;6.000;2023-09-19T12:40:28;8.60;;;2.80;;
56537;SDS011;42435;53.292;6.000;2023-09-19T12:42:58;10.45;;;2.67;;
56537;SDS011;42435;53.292;6.000;2023-09-19T12:45:24;6.93;;;2.92;;
56537;SDS011;42435;53.292;6.000;2023-09-19T12:53:37;13.27;;;2.88;;
56537;SDS011;42435;53.292;6.000;2023-09-19T12:56:05;8.02;;;2.70;;
56537;SDS011;42435;53.292;6.000;2023-09-19T12:58:33;7.60;;;2.90;;
56537;SDS011;42435;53.292;6.000;2023-09-19T13:01:00;7.00;;;3.30;;
56537;SDS011;42435;53.292;6.000;2023-09-19T13:03:30;7.15;;;3.30;;
56537;SDS011;42435;53.292;6.000;2023-09-19T13:06:00;9.43;;;3.50;;
56537;SDS011;42435;53.292;6.000;2023-09-19T13:08:34;7.35;;;2.28;;
56537;SDS011;42435;53.292;6.000;2023-09-19T13:11:16;14.07;;;2.90;;
56537;SDS011;42435;53.292;6.000;2023-09-19T13:25:06;7.10;;;1.98;;
56537;SDS011;42435;53.292;6.000;2023-09-19T13:27:45;5.70;;;2.10;;
56537;SDS011;42435;53.292;6.000;2023-09-19T13:30:16;6.07;;;2.20;;
56537;SDS011;42435;53.292;6.000;2023-09-19T13:32:42;5.82;;;2.38;;
56537;SDS011;42435;53.292;6.000;2023-09-19T13:35:11;7.88;;;2.28;;
56537;SDS011;42435;53.292;6.000;2023-09-19T13:37:40;8.48;;;2.20;;
56537;SDS011;42435;53.292;6.000;2023-09-19T13:40:11;7.45;;;2.10;;
56537;SDS011;42435;53.292;6.000;2023-09-19T13:42:38;11.32;;;2.20;;
56537;SDS011;42435;53.292;6.000;2023-09-19T13:45:05;8.60;;;2.60;;
56537;SDS011;42435;53.292;6.000;2023-09-19T13:47:36;5.50;;;2.13;;
56537;SDS011;42435;53.292;6.000;2023-09-19T13:50:03;6.70;;;2.22;;
56537;SDS011;42435;53.292;6.000;2023-09-19T13:52:30;6.68;;;2.70;;
56537;SDS011;42435;53.292;6.000;2023-09-19T13:54:56;7.15;;;2.28;;
56537;SDS011;42435;53.292;6.000;2023-09-19T13:57:26;7.82;;;2.50;;
56537;SDS011;42435;53.292;6.000;2023-09-19T13:59:52;8.35;;;2.55;;
56537;SDS011;42435;53.292;6.000;2023-09-19T14:02:24;9.50;;;2.58;;
56537;SDS011;42435;53.292;6.000;2023-09-19T14:04:50;8.10;;;2.40;;
56537;SDS011;42435;53.292;6.000;2023-09-19T14:07:20;9.57;;;2.30;;
56537;SDS011;42435;53.292;6.000;2023-09-19T14:09:45;7.63;;;2.55;;
56537;SDS011;42435;53.292;6.000;2023-09-19T14:12:12;11.48;;;3.08;;
56537;SDS011;42435;53.292;6.000;2023-09-19T14:14:41;9.80;;;2.70;;
56537;SDS011;42435;53.292;6.000;2023-09-19T14:17:08;7.82;;;3.03;;
56537;SDS011;42435;53.292;6.000;2023-09-19T14:19:34;9.35;;;2.88;;
56537;SDS011;42435;53.292;6.000;2023-09-19T14:22:01;9.93;;;3.10;;
56537;SDS011;42435;53.292;6.000;2023-09-19T14:24:32;12.82;;;3.13;;
56537;SDS011;42435;53.292;6.000;2023-09-19T14:26:58;11.40;;;3.40;;
56537;SDS011;42435;53.292;6.000;2023-09-19T14:29:24;8.45;;;2.90;;
56537;SDS011;42435;53.292;6.000;2023-09-19T14:31:51;11.25;;;3.70;;
56537;SDS011;42435;53.292;6.000;2023-09-19T14:34:17;10.23;;;2.92;;
56537;SDS011;42435;53.292;6.000;2023-09-19T14:36:42;8.90;;;2.80;;
56537;SDS011;42435;53.292;6.000;2023-09-19T14:39:08;5.55;;;2.63;;
56537;SDS011;42435;53.292;6.000;2023-09-19T14:41:34;9.63;;;3.00;;
56537;SDS011;42435;53.292;6.000;2023-09-19T14:44:01;11.43;;;3.08;;
56537;SDS011;42435;53.292;6.000;2023-09-19T14:46:27;5.70;;;2.70;;
56537;SDS011;42435;53.292;6.000;2023-09-19T14:48:53;10.43;;;3.17;;
56537;SDS011;42435;53.292;6.000;2023-09-19T14:51:22;9.23;;;3.35;;
56537;SDS011;42435;53.292;6.000;2023-09-19T14:53:47;12.25;;;3.58;;
56537;SDS011;42435;53.292;6.000;2023-09-19T14:56:14;9.65;;;3.20;;
56537;SDS011;42435;53.292;6.000;2023-09-19T14:58:43;11.63;;;4.15;;
56537;SDS011;42435;53.292;6.000;2023-09-19T15:01:09;14.07;;;3.65;;
56537;SDS011;42435;53.292;6.000;2023-09-19T15:03:36;14.82;;;3.58;;
56537;SDS011;42435;53.292;6.000;2023-09-19T15:06:04;12.02;;;3.17;;
56537;SDS011;42435;53.292;6.000;2023-09-19T15:08:31;10.15;;;3.15;;
56537;SDS011;42435;53.292;6.000;2023-09-19T15:11:00;12.38;;;3.47;;
56537;SDS011;42435;53.292;6.000;2023-09-19T15:13:30;13.45;;;3.10;;
56537;SDS011;42435;53.292;6.000;2023-09-19T15:18:26;13.98;;;3.38;;
56537;SDS011;42435;53.292;6.000;2023-09-19T15:20:52;15.63;;;4.68;;
56537;SDS011;42435;53.292;6.000;2023-09-19T15:23:19;13.68;;;3.55;;
56537;SDS011;42435;53.292;6.000;2023-09-19T15:25:48;14.35;;;3.38;;
56537;SDS011;42435;53.292;6.000;2023-09-19T15:28:14;12.32;;;3.47;;
56537;SDS011;42435;53.292;6.000;2023-09-19T15:30:40;14.55;;;3.88;;
56537;SDS011;42435;53.292;6.000;2023-09-19T15:33:06;12.52;;;4.30;;
56537;SDS011;42435;53.292;6.000;2023-09-19T15:35:31;14.23;;;3.65;;
56537;SDS011;42435;53.292;6.000;2023-09-19T15:37:57;14.30;;;4.03;;
56537;SDS011;42435;53.292;6.000;2023-09-19T15:40:25;14.20;;;4.35;;
56537;SDS011;42435;53.292;6.000;2023-09-19T15:42:52;13.95;;;3.70;;
56537;SDS011;42435;53.292;6.000;2023-09-19T15:45:19;15.52;;;4.60;;
56537;SDS011;42435;53.292;6.000;2023-09-19T15:47:44;16.23;;;4.40;;
56537;SDS011;42435;53.292;6.000;2023-09-19T15:50:10;13.77;;;4.15;;
56537;SDS011;42435;53.292;6.000;2023-09-19T15:52:39;19.17;;;5.18;;
56537;SDS011;42435;53.292;6.000;2023-09-19T15:55:05;18.45;;;4.97;;
56537;SDS011;42435;53.292;6.000;2023-09-19T15:57:37;15.23;;;4.22;;